Time;durP1;ratioP1;P1;durP2;ratioP2;P2;SDS_P1;SDS_P2;PMS_P1;PMS_P2;Temp;Humidity;BMP_temperature;BMP_pressure;BME280_temperature;BME280_humidity;BME280_pressure;Samples;Min_cycle;Max_cycle;Signal;HPM_P1;HPM_P2
2022/08/07 00:01:13;;;;;;;29.42;18.73;;;16.80;99.90;;;;;;5089453;28;20394;-50
2022/08/07 00:03:59;;;;;;;31.67;20.25;;;16.80;99.90;;;;;;5091286;28;20549;-54
2022/08/07 00:06:29;;;;;;;30.63;18.70;;;16.80;99.90;;;;;;5091366;28;20054;-51
2022/08/07 00:09:00;;;;;;;31.40;18.38;;;16.80;99.90;;;;;;5088920;28;20033;-53
2022/08/07 00:11:47;;;;;;;34.43;19.00;;;16.80;99.90;;;;;;5090574;28;20036;-50
2022/08/07 00:14:25;;;;;;;30.08;17.80;;;16.80;99.90;;;;;;5091347;28;20032;-50
2022/08/07 00:16:58;;;;;;;29.75;18.45;;;16.70;99.90;;;;;;5091413;28;20101;-50
2022/08/07 00:19:27;;;;;;;31.27;19.13;;;16.70;99.90;;;;;;5087919;28;20044;-53
2022/08/07 00:22:14;;;;;;;35.33;18.88;;;16.80;99.90;;;;;;5083141;28;20048;-49
2022/08/07 00:25:03;;;;;;;27.73;18.08;;;16.80;99.90;;;;;;5091044;28;20048;-50
2022/08/07 00:27:30;;;;;;;31.05;18.40;;;16.80;99.90;;;;;;5086776;28;20036;-51
2022/08/07 00:30:18;;;;;;;34.25;18.98;;;16.70;99.90;;;;;;5083539;28;20377;-52
2022/08/07 00:32:52;;;;;;;31.00;19.13;;;16.80;99.90;;;;;;5091305;28;20044;-52
2022/08/07 00:35:20;;;;;;;29.77;17.60;;;16.80;99.90;;;;;;5092685;28;20040;-51
2022/08/07 00:37:49;;;;;;;26.75;16.95;;;16.80;99.90;;;;;;5084738;28;20504;-53
2022/08/07 00:40:16;;;;;;;26.15;17.05;;;16.80;99.90;;;;;;5094693;28;20071;-51
2022/08/07 00:43:03;;;;;;;29.38;17.33;;;16.80;99.90;;;;;;5093701;28;20102;-52
2022/08/07 00:45:37;;;;;;;26.30;16.98;;;16.80;99.90;;;;;;5087623;28;20058;-52
2022/08/07 00:48:05;;;;;;;31.75;16.65;;;16.70;99.90;;;;;;5084971;28;20062;-52
2022/08/07 00:50:38;;;;;;;30.33;16.95;;;16.70;99.90;;;;;;5101320;28;20048;-52
2022/08/07 00:53:16;;;;;;;28.77;16.85;;;16.70;99.90;;;;;;5056510;28;20110;-52
2022/08/07 00:55:45;;;;;;;34.70;17.95;;;16.70;99.90;;;;;;5090892;28;20124;-52
2022/08/07 00:58:28;;;;;;;29.10;17.40;;;16.70;99.90;;;;;;5093543;28;20048;-51
2022/08/07 01:00:54;;;;;;;28.85;17.40;;;16.70;99.90;;;;;;5094211;28;20044;-51
2022/08/07 01:03:21;;;;;;;34.33;19.10;;;16.60;99.90;;;;;;5090355;28;20134;-51
2022/08/07 01:06:08;;;;;;;29.98;17.83;;;16.70;99.90;;;;;;5094464;28;20052;-50
2022/08/07 01:08:39;;;;;;;33.67;18.65;;;16.60;99.90;;;;;;5093126;28;20036;-52
2022/08/07 01:11:20;;;;;;;29.08;17.85;;;16.70;99.90;;;;;;5086614;28;20048;-52
2022/08/07 01:14:07;;;;;;;31.00;17.27;;;16.70;99.90;;;;;;5094048;28;20036;-51
2022/08/07 01:16:35;;;;;;;29.15;16.83;;;16.70;99.90;;;;;;5092915;28;20564;-51
2022/08/07 01:19:06;;;;;;;32.00;18.13;;;16.70;99.90;;;;;;5093150;28;20048;-53
2022/08/07 01:21:45;;;;;;;36.22;18.20;;;16.70;99.90;;;;;;5080371;28;20097;-50
2022/08/07 01:24:14;;;;;;;33.38;18.45;;;16.60;99.90;;;;;;5073807;28;20052;-51
2022/08/07 01:26:52;;;;;;;35.45;19.17;;;16.70;99.90;;;;;;5062796;28;20047;-52
2022/08/07 01:29:25;;;;;;;35.30;17.40;;;16.60;99.90;;;;;;5069441;28;20041;-51
2022/08/07 01:31:54;;;;;;;35.28;17.55;;;16.60;99.90;;;;;;5074117;28;20051;-52
2022/08/07 01:34:28;;;;;;;34.08;17.77;;;16.60;99.90;;;;;;5070477;28;20036;-52
2022/08/07 01:37:25;;;;;;;31.42;17.23;;;16.60;99.90;;;;;;5095223;22;20116;-54
2022/08/07 01:44:18;;;;;;;27.65;15.15;;;16.60;99.90;;;;;;5051597;28;20119;-54
2022/08/07 01:46:45;;;;;;;30.52;16.00;;;16.60;99.90;;;;;;5042493;27;20552;-50
2022/08/07 01:49:12;;;;;;;;;;;16.60;99.90;;;;;;5116907;27;20035;-54
2022/08/07 01:51:45;;;;;;;27.67;14.38;;;16.60;99.90;;;;;;5119802;27;20314;-53
2022/08/07 01:54:34;;;;;;;26.58;14.60;;;16.60;99.90;;;;;;5137734;27;20035;-52
2022/08/07 01:57:09;;;;;;;29.50;15.13;;;16.50;99.90;;;;;;5125292;27;20078;-51
2022/08/07 02:00:01;;;;;;;30.13;14.68;;;16.50;99.90;;;;;;5133325;27;20095;-54
2022/08/07 02:02:49;;;;;;;28.10;14.68;;;16.50;99.90;;;;;;5141992;27;20079;-52
2022/08/07 02:05:54;;;;;;;30.15;14.93;;;16.50;99.90;;;;;;5116188;27;20043;-52
2022/08/07 02:08:29;;;;;;;30.92;15.63;;;16.50;99.90;;;;;;5115871;27;20042;-50
2022/08/07 02:10:58;;;;;;;25.10;14.93;;;16.50;99.90;;;;;;5115502;27;20050;-50
2022/08/07 02:13:30;;;;;;;27.23;13.70;;;16.50;99.90;;;;;;5118003;27;20039;-53
2022/08/07 02:16:18;;;;;;;23.65;13.40;;;16.50;99.90;;;;;;5116001;27;20039;-53
2022/08/07 02:18:55;;;;;;;22.80;13.57;;;16.50;99.90;;;;;;5116007;27;20066;-51
2022/08/07 02:21:25;;;;;;;24.85;13.13;;;16.50;99.90;;;;;;5119598;27;20047;-51
2022/08/07 02:24:13;;;;;;;22.98;13.30;;;16.50;99.90;;;;;;5115860;27;20043;-52
2022/08/07 02:26:45;;;;;;;23.50;12.77;;;16.40;99.90;;;;;;5115884;27;20075;-52
2022/08/07 02:29:12;;;;;;;26.40;13.55;;;16.40;99.90;;;;;;5115344;27;20043;-50
2022/08/07 02:31:41;;;;;;;24.08;13.02;;;16.40;99.90;;;;;;5128139;27;20376;-51
2022/08/07 02:34:08;;;;;;;;;;;16.40;99.90;;;;;;5116197;27;20092;-50
2022/08/07 02:36:48;;;;;;;;;;;16.40;99.90;;;;;;5133226;27;19954;-50
2022/08/07 02:39:18;;;;;;;25.55;13.65;;;16.40;99.90;;;;;;5135532;27;20006;-50
2022/08/07 02:42:06;;;;;;;22.58;13.35;;;16.30;99.90;;;;;;5114976;27;20043;-52
2022/08/07 02:44:45;;;;;;;24.65;13.57;;;16.30;99.90;;;;;;5115580;27;20039;-51
2022/08/07 02:47:17;;;;;;;21.70;13.15;;;16.30;99.90;;;;;;5133091;27;20050;-53
2022/08/07 02:49:47;;;;;;;27.73;15.02;;;16.30;99.90;;;;;;5133675;27;20140;-52
2022/08/07 02:52:40;;;;;;;27.60;13.30;;;16.30;99.90;;;;;;5133498;27;20035;-50
2022/08/07 02:55:21;;;;;;;20.75;12.00;;;16.30;99.90;;;;;;5115418;27;20039;-51
2022/08/07 02:58:12;;;;;;;19.50;12.13;;;16.30;99.90;;;;;;5121435;27;20402;-51
2022/08/07 03:00:42;;;;;;;26.45;12.38;;;16.20;99.90;;;;;;5137256;27;20039;-49
2022/08/07 03:03:16;;;;;;;19.95;11.60;;;16.20;99.90;;;;;;5114895;27;20054;-50
2022/08/07 03:05:53;;;;;;;18.40;10.80;;;16.20;99.90;;;;;;5114365;27;20050;-52
2022/08/07 03:08:21;;;;;;;16.65;10.25;;;16.20;99.90;;;;;;5123200;27;20070;-50
2022/08/07 03:10:58;;;;;;;20.95;11.27;;;16.20;99.90;;;;;;5114584;27;20567;-49
2022/08/07 03:13:31;;;;;;;19.77;10.82;;;16.20;99.90;;;;;;5114787;27;20383;-49
2022/08/07 03:16:17;;;;;;;16.08;10.25;;;16.20;99.90;;;;;;5118160;27;20077;-49
2022/08/07 03:18:50;;;;;;;18.10;10.35;;;16.20;99.90;;;;;;5114802;27;20055;-49
2022/08/07 03:21:18;;;;;;;16.42;10.23;;;16.10;99.90;;;;;;5114215;27;20099;-50
2022/08/07 03:23:47;;;;;;;16.88;10.90;;;16.10;99.90;;;;;;5115284;27;20043;-50
2022/08/07 03:26:35;;;;;;;15.70;9.23;;;16.10;99.90;;;;;;5126632;27;20161;-49
2022/08/07 03:29:20;;;;;;;17.83;9.77;;;16.10;99.90;;;;;;5152423;27;20587;-49
2022/08/07 03:31:50;;;;;;;16.55;10.23;;;16.00;99.90;;;;;;5151991;27;20042;-50
2022/08/07 03:34:21;;;;;;;15.15;9.30;;;16.00;99.90;;;;;;5128354;27;20035;-50
2022/08/07 03:36:58;;;;;;;15.50;9.55;;;16.00;99.90;;;;;;5124210;27;20494;-49
2022/08/07 03:39:40;;;;;;;13.35;9.20;;;16.00;99.90;;;;;;5135076;27;20567;-49
2022/08/07 03:42:27;;;;;;;15.70;9.55;;;16.00;99.90;;;;;;5134755;27;20041;-49
2022/08/07 03:44:55;;;;;;;12.55;8.68;;;16.00;99.90;;;;;;5142164;27;20062;-50
2022/08/07 03:47:26;;;;;;;13.13;9.13;;;16.10;99.90;;;;;;5128206;27;20038;-50
2022/08/07 03:50:11;;;;;;;15.93;9.55;;;16.10;99.90;;;;;;5134444;27;20051;-50
2022/08/07 03:52:38;;;;;;;;;;;16.10;99.90;;;;;;5133779;27;20047;-49
2022/08/07 03:55:08;;;;;;;14.15;9.05;;;16.10;99.90;;;;;;5117263;27;20294;-54
2022/08/07 03:57:42;;;;;;;16.35;9.52;;;16.10;99.90;;;;;;5134899;27;20046;-49
2022/08/07 04:00:36;;;;;;;15.38;8.77;;;16.20;99.90;;;;;;5152871;27;20314;-50
2022/08/07 04:03:04;;;;;;;16.17;9.35;;;16.20;99.90;;;;;;5142754;27;20463;-51
2022/08/07 04:05:36;;;;;;;13.45;9.20;;;16.20;99.90;;;;;;5129665;27;20061;-49
2022/08/07 04:08:14;;;;;;;13.30;9.10;;;16.10;99.90;;;;;;5134628;27;20608;-49
2022/08/07 04:10:47;;;;;;;12.18;8.38;;;16.10;99.90;;;;;;5152862;27;20027;-49
2022/08/07 04:13:35;;;;;;;15.30;9.85;;;16.20;99.90;;;;;;5117641;28;20510;-51
2022/08/07 04:16:22;;;;;;;14.10;8.80;;;16.20;99.90;;;;;;5132144;28;20050;-49
2022/08/07 04:19:00;;;;;;;11.75;7.85;;;16.20;99.90;;;;;;5114095;28;20051;-49
2022/08/07 04:21:38;;;;;;;11.15;8.07;;;16.20;99.90;;;;;;5129469;27;20050;-50
2022/08/07 04:24:25;;;;;;;12.88;8.77;;;16.20;99.90;;;;;;5113591;28;20054;-49
2022/08/07 04:27:06;;;;;;;15.27;8.30;;;16.20;99.90;;;;;;5113518;27;20042;-51
2022/08/07 04:29:54;;;;;;;16.85;9.13;;;16.20;99.90;;;;;;5129348;27;20050;-50
2022/08/07 04:32:48;;;;;;;12.05;7.97;;;16.10;99.90;;;;;;5121114;27;20050;-50
2022/08/07 04:35:25;;;;;;;11.43;7.65;;;16.10;99.90;;;;;;5134322;27;20043;-49
2022/08/07 04:37:55;;;;;;;13.60;8.68;;;16.10;99.90;;;;;;5129982;27;20759;-50
2022/08/07 04:40:32;;;;;;;16.48;8.27;;;16.10;99.90;;;;;;5128625;27;20471;-49
2022/08/07 04:43:00;;;;;;;12.75;8.65;;;16.20;99.90;;;;;;5133847;27;20081;-50
2022/08/07 04:46:22;;;;;;;18.73;8.88;;;16.10;99.90;;;;;;5144333;27;20027;-50
2022/08/07 04:49:07;;;;;;;13.93;8.07;;;16.10;99.90;;;;;;5088081;28;20473;-50
2022/08/07 04:52:29;;;;;;;11.88;7.60;;;16.10;99.90;;;;;;5130489;28;20039;-50
2022/08/07 04:55:19;;;;;;;11.50;8.25;;;16.10;99.90;;;;;;5120505;27;20039;-49
2022/08/07 04:58:35;;;;;;;13.02;8.63;;;16.20;99.90;;;;;;5122441;28;20050;-50
2022/08/07 05:01:43;;;;;;;11.23;7.40;;;16.20;99.90;;;;;;5131704;28;20510;-50
2022/08/07 05:04:20;;;;;;;12.65;8.13;;;16.10;99.90;;;;;;5120097;28;20043;-50
2022/08/07 05:07:16;;;;;;;9.18;7.00;;;16.10;99.90;;;;;;5130820;27;20074;-50
2022/08/07 05:10:01;;;;;;;12.20;7.70;;;16.20;99.90;;;;;;5133940;27;20495;-49
2022/08/07 05:13:05;;;;;;;12.20;8.15;;;16.10;99.90;;;;;;5141172;27;20435;-50
2022/08/07 05:15:53;;;;;;;10.43;8.00;;;16.10;99.90;;;;;;5131463;28;20036;-49
2022/08/07 05:18:33;;;;;;;11.48;8.25;;;16.10;99.90;;;;;;5128698;28;20043;-52
2022/08/07 05:21:08;;;;;;;11.38;7.70;;;16.10;99.90;;;;;;5132396;27;20047;-49
2022/08/07 05:23:52;;;;;;;16.83;8.25;;;16.20;99.90;;;;;;5133921;27;20046;-49
2022/08/07 05:26:21;;;;;;;11.75;7.60;;;16.20;99.90;;;;;;5116907;27;20043;-53
2022/08/07 05:28:57;;;;;;;13.30;7.65;;;16.20;99.90;;;;;;5133814;27;20047;-49
2022/08/07 05:31:32;;;;;;;10.60;8.10;;;16.20;99.90;;;;;;5128039;27;20035;-49
2022/08/07 05:34:10;;;;;;;11.55;7.63;;;16.20;99.90;;;;;;5116934;27;20067;-50
2022/08/07 05:36:43;;;;;;;12.77;8.55;;;16.30;99.90;;;;;;5116346;27;20134;-50
2022/08/07 05:39:36;;;;;;;13.38;8.07;;;16.30;99.90;;;;;;5139504;27;20055;-50
2022/08/07 05:42:23;;;;;;;11.63;7.93;;;16.30;99.90;;;;;;5116496;27;20035;-49
2022/08/07 05:45:07;;;;;;;11.65;8.32;;;16.30;99.90;;;;;;5101892;27;20058;-50
2022/08/07 05:47:59;;;;;;;12.52;7.90;;;16.30;99.90;;;;;;5136806;27;20451;-49
2022/08/07 05:50:35;;;;;;;15.63;8.32;;;16.30;99.90;;;;;;5131601;27;20080;-51
2022/08/07 05:53:09;;;;;;;13.10;8.25;;;16.30;99.90;;;;;;5154140;27;20065;-50
2022/08/07 05:55:56;;;;;;;14.65;8.95;;;16.30;99.90;;;;;;5126822;27;20122;-49
2022/08/07 05:58:36;;;;;;;16.58;8.52;;;16.50;99.90;;;;;;5121173;27;20046;-49
2022/08/07 06:01:10;;;;;;;10.73;7.75;;;16.50;99.90;;;;;;5115615;27;20073;-49
2022/08/07 06:03:47;;;;;;;10.57;7.90;;;16.60;99.90;;;;;;5123952;27;20517;-49
2022/08/07 06:06:26;;;;;;;12.93;7.47;;;16.60;99.90;;;;;;5128321;27;20054;-51
2022/08/07 06:09:00;;;;;;;9.90;7.57;;;16.70;99.90;;;;;;5115861;27;20392;-50
2022/08/07 06:11:33;;;;;;;10.57;8.07;;;16.80;99.90;;;;;;5121836;27;20068;-49
2022/08/07 06:14:02;;;;;;;12.93;7.78;;;16.80;99.90;;;;;;5116902;27;20058;-49
2022/08/07 06:16:48;;;;;;;10.40;7.60;;;16.80;99.90;;;;;;5115102;27;20406;-50
2022/08/07 06:19:25;;;;;;;10.50;7.82;;;16.90;99.90;;;;;;5115569;27;20096;-51
2022/08/07 06:22:14;;;;;;;15.60;8.65;;;16.90;99.90;;;;;;5115563;27;20039;-52
2022/08/07 06:25:01;;;;;;;9.52;8.18;;;17.00;99.90;;;;;;5149857;27;20047;-49
2022/08/07 06:27:29;;;;;;;10.38;7.68;;;17.00;99.90;;;;;;5132607;27;20106;-49
2022/08/07 06:30:16;;;;;;;11.18;8.20;;;17.10;99.90;;;;;;5122561;27;20042;-50
2022/08/07 06:33:04;;;;;;;11.83;9.00;;;17.20;99.90;;;;;;5131558;27;20043;-50
2022/08/07 06:35:42;;;;;;;15.73;8.07;;;17.30;99.90;;;;;;5114689;27;20376;-49
2022/08/07 06:38:29;;;;;;;13.52;7.95;;;17.30;99.90;;;;;;5128313;27;20121;-50
2022/08/07 06:40:59;;;;;;;9.73;7.78;;;17.50;99.90;;;;;;5121803;27;20047;-50
2022/08/07 06:43:34;;;;;;;10.55;8.35;;;17.60;99.90;;;;;;5135732;27;20094;-49
2022/08/07 06:46:13;;;;;;;10.18;7.35;;;17.70;99.90;;;;;;5135361;27;20046;-51
2022/08/07 06:48:42;;;;;;;9.45;7.25;;;17.80;99.90;;;;;;5135106;27;20027;-49
2022/08/07 06:51:22;;;;;;;10.13;7.78;;;17.80;99.90;;;;;;5114737;27;20142;-49
2022/08/07 06:54:02;;;;;;;12.82;7.65;;;17.80;99.90;;;;;;5132341;27;20081;-50
2022/08/07 06:56:50;;;;;;;15.90;7.53;;;17.70;99.90;;;;;;5122945;27;20062;-50
2022/08/07 06:59:25;;;;;;;13.05;8.40;;;17.60;99.90;;;;;;5128165;27;20046;-49
2022/08/07 07:02:17;;;;;;;10.52;7.97;;;17.60;99.90;;;;;;5152487;27;20041;-50
2022/08/07 07:05:05;;;;;;;9.88;7.47;;;17.60;99.90;;;;;;5133141;27;20051;-50
2022/08/07 07:07:31;;;;;;;;;;;17.70;99.90;;;;;;5114872;27;20075;-50
2022/08/07 07:10:27;;;;;;;12.13;7.97;;;17.70;99.90;;;;;;5120595;27;19919;-49
2022/08/07 07:12:58;;;;;;;11.02;6.97;;;17.90;99.90;;;;;;5114379;27;20518;-50
2022/08/07 07:15:32;;;;;;;10.25;7.13;;;17.90;99.90;;;;;;5133054;27;20041;-49
2022/08/07 07:18:10;;;;;;;12.60;7.47;;;18.10;99.90;;;;;;5132714;27;20442;-52
2022/08/07 07:20:51;;;;;;;9.95;7.10;;;18.30;99.90;;;;;;5139820;27;20046;-50
2022/08/07 07:23:19;;;;;;;9.10;7.20;;;18.30;99.90;;;;;;5132657;27;20054;-49
2022/08/07 07:26:08;;;;;;;11.63;7.43;;;18.30;99.90;;;;;;5132824;27;20058;-50
2022/08/07 07:29:00;;;;;;;10.80;7.90;;;18.30;99.90;;;;;;5140681;27;20042;-49
2022/08/07 07:31:50;;;;;;;10.85;6.85;;;18.50;99.90;;;;;;5131905;27;20043;-50
2022/08/07 07:34:30;;;;;;;12.68;7.72;;;18.60;99.90;;;;;;5132715;27;20491;-50
2022/08/07 07:37:02;;;;;;;13.05;8.50;;;18.70;99.90;;;;;;5142369;22;20764;-51
2022/08/07 07:39:48;;;;;;;10.98;7.35;;;18.80;99.90;;;;;;5131434;27;20039;-50
2022/08/07 07:42:25;;;;;;;12.75;8.18;;;18.70;99.90;;;;;;5118822;27;20052;-52
2022/08/07 07:45:04;;;;;;;8.90;6.97;;;18.70;99.90;;;;;;5111874;28;20146;-50
2022/08/07 07:47:35;;;;;;;9.95;8.07;;;18.60;99.90;;;;;;5103715;28;20043;-52
2022/08/07 07:50:21;;;;;;;10.05;7.15;;;18.60;99.90;;;;;;5104410;28;20132;-49
2022/08/07 07:53:07;;;;;;;13.98;7.93;;;18.60;99.90;;;;;;5111665;28;20042;-51
2022/08/07 07:55:54;;;;;;;13.80;8.13;;;18.70;99.90;;;;;;5110865;28;20085;-50
2022/08/07 07:58:32;;;;;;;12.00;7.80;;;18.60;99.90;;;;;;5105704;28;20036;-51
2022/08/07 08:01:10;;;;;;;12.57;7.93;;;18.60;99.90;;;;;;5110600;28;20100;-50
2022/08/07 08:04:01;;;;;;;12.45;8.10;;;18.70;99.90;;;;;;5110526;28;20093;-51
2022/08/07 08:06:40;;;;;;;9.45;7.07;;;18.80;99.90;;;;;;5111244;28;20134;-50
2022/08/07 08:09:23;;;;;;;9.25;6.97;;;19.10;99.90;;;;;;5091215;28;20044;-50
2022/08/07 08:11:56;;;;;;;12.27;7.50;;;19.20;99.90;;;;;;5090796;28;20071;-50
2022/08/07 08:14:31;;;;;;;11.20;6.68;;;19.20;99.90;;;;;;5105942;28;20043;-50
2022/08/07 08:17:01;;;;;;;10.43;7.68;;;19.20;99.90;;;;;;5111575;28;20036;-51
2022/08/07 08:19:51;;;;;;;8.68;6.45;;;19.20;99.90;;;;;;5110547;28;20043;-50
2022/08/07 08:28:20;;;;;;;9.70;7.00;;;19.20;99.90;;;;;;5111501;28;20067;-53
2022/08/07 08:31:06;;;;;;;11.18;7.13;;;19.40;99.90;;;;;;5102965;28;20068;-52
2022/08/07 08:33:42;;;;;;;8.73;6.53;;;19.70;99.90;;;;;;5111396;28;20043;-51
2022/08/07 08:36:17;;;;;;;9.40;7.20;;;19.90;99.90;;;;;;5110648;28;20047;-50
2022/08/07 08:38:54;;;;;;;8.50;6.70;;;20.10;99.90;;;;;;5110868;28;20043;-51
2022/08/07 08:41:21;;;;;;;8.85;6.90;;;20.00;99.90;;;;;;5106202;28;20043;-52
2022/08/07 08:43:54;;;;;;;;;;;20.10;99.90;;;;;;5111359;28;20123;-51
2022/08/07 08:46:37;;;;;;;9.63;7.45;;;20.10;99.90;;;;;;5108847;28;20307;-51
2022/08/07 08:49:19;;;;;;;11.35;6.85;;;20.20;99.90;;;;;;5107636;28;20752;-51
2022/08/07 08:52:17;;;;;;;8.82;6.95;;;20.00;99.90;;;;;;5109979;28;20097;-51
2022/08/07 08:55:07;;;;;;;11.45;6.85;;;19.80;99.90;;;;;;5108352;28;20673;-51
2022/08/07 08:57:43;;;;;;;8.38;6.95;;;20.00;99.90;;;;;;5110782;28;20059;-51
2022/08/07 09:00:11;;;;;;;7.35;6.55;;;19.90;99.90;;;;;;5112581;28;20274;-54
2022/08/07 09:02:57;;;;;;;8.40;6.65;;;19.90;99.90;;;;;;5114780;28;20069;-50
2022/08/07 09:05:44;;;;;;;7.73;6.93;;;19.70;99.90;;;;;;5110341;28;20110;-51
2022/08/07 09:08:14;;;;;;;10.07;7.18;;;19.60;99.90;;;;;;5112826;28;20071;-51
2022/08/07 09:10:55;;;;;;;9.43;8.10;;;19.70;99.90;;;;;;5108811;28;20076;-50
2022/08/07 09:14:02;;;;;;;11.02;7.90;;;19.60;99.90;;;;;;5114309;28;20048;-51
2022/08/07 09:17:03;;;;;;;11.50;8.38;;;19.30;99.90;;;;;;5064617;28;20464;-50
2022/08/07 09:19:56;;;;;;;12.32;9.07;;;19.20;99.90;;;;;;5114523;28;20043;-50
2022/08/07 09:22:37;;;;;;;10.27;8.32;;;19.20;99.90;;;;;;5108007;28;20032;-50
2022/08/07 09:25:26;;;;;;;;;;;19.10;99.90;;;;;;5094730;28;20102;-50
2022/08/07 09:28:04;;;;;;;11.00;8.93;;;19.00;99.90;;;;;;5095376;28;20372;-53
2022/08/07 09:30:59;;;;;;;11.00;8.15;;;18.90;99.90;;;;;;5109307;28;20762;-50
2022/08/07 09:33:39;;;;;;;12.47;8.50;;;19.00;99.90;;;;;;5110353;28;20051;-50
2022/08/07 09:36:29;;;;;;;9.70;8.35;;;19.00;99.90;;;;;;5112147;28;20754;-53
2022/08/07 09:39:17;;;;;;;11.43;8.20;;;18.90;99.90;;;;;;5114431;28;20047;-51
2022/08/07 09:42:32;;;;;;;11.25;8.27;;;18.90;99.90;;;;;;5109638;28;20473;-51
2022/08/07 09:45:22;;;;;;;10.90;8.07;;;18.90;99.90;;;;;;5114290;28;20093;-50
2022/08/07 09:48:09;;;;;;;;;;;19.00;99.90;;;;;;5114414;28;20067;-52
2022/08/07 09:50:53;;;;;;;9.65;8.18;;;19.10;99.90;;;;;;5113340;28;20018;-54
2022/08/07 09:53:23;;;;;;;12.75;8.23;;;19.20;99.90;;;;;;5107437;28;20047;-53
2022/08/07 09:56:14;;;;;;;11.60;8.57;;;19.20;99.90;;;;;;5114023;28;20070;-51
2022/08/07 09:59:33;;;;;;;11.48;8.88;;;19.20;99.90;;;;;;5114125;28;20389;-52
2022/08/07 10:02:31;;;;;;;11.45;8.57;;;19.10;99.90;;;;;;5063389;28;20060;-51
2022/08/07 10:05:17;;;;;;;11.32;9.35;;;19.10;99.90;;;;;;5113906;28;20047;-54
2022/08/07 10:08:31;;;;;;;12.88;8.63;;;19.10;99.90;;;;;;5107495;28;20449;-51
2022/08/07 10:11:20;;;;;;;12.95;9.40;;;19.20;99.90;;;;;;5113678;28;20040;-51
2022/08/07 10:14:43;;;;;;;12.68;8.43;;;19.20;99.90;;;;;;5112411;28;20557;-50
2022/08/07 10:17:42;;;;;;;10.70;9.00;;;19.20;99.90;;;;;;5109527;28;20040;-51
2022/08/07 10:20:49;;;;;;;9.48;7.97;;;19.20;99.90;;;;;;5109908;28;20122;-51
2022/08/07 10:23:37;;;;;;;13.60;8.85;;;19.40;99.90;;;;;;5112436;28;20036;-53
2022/08/07 10:26:55;;;;;;;11.55;8.73;;;19.40;99.90;;;;;;5111483;28;20036;-53
2022/08/07 10:29:57;;;;;;;9.47;8.07;;;19.40;99.90;;;;;;5112540;28;20039;-53
2022/08/07 10:32:56;;;;;;;12.70;8.32;;;19.50;99.90;;;;;;5111724;28;20261;-52
2022/08/07 10:35:31;;;;;;;13.93;8.18;;;19.40;99.90;;;;;;5109859;28;20047;-51
2022/08/07 10:38:36;;;;;;;14.38;8.80;;;19.30;99.90;;;;;;5099578;28;20032;-53
2022/08/07 10:41:26;;;;;;;14.13;9.23;;;19.20;99.90;;;;;;5092526;28;20496;-55
2022/08/07 10:44:26;;;;;;;16.02;8.40;;;19.20;99.90;;;;;;5104715;28;20047;-52
2022/08/07 10:47:22;;;;;;;10.43;8.63;;;19.50;99.90;;;;;;5096534;28;20051;-54
2022/08/07 10:50:23;;;;;;;10.15;8.75;;;19.60;99.90;;;;;;5112734;28;20044;-55
2022/08/07 10:52:56;;;;;;;9.60;7.68;;;19.70;99.90;;;;;;5072946;28;20060;-51
2022/08/07 10:55:30;;;;;;;12.43;7.88;;;19.70;99.90;;;;;;5113119;28;20075;-52
2022/08/07 10:58:12;;;;;;;9.27;7.30;;;19.80;99.90;;;;;;5113058;28;20042;-51
2022/08/07 11:00:54;;;;;;;8.32;7.32;;;19.70;99.90;;;;;;5103967;28;20052;-51
2022/08/07 11:03:36;;;;;;;11.77;7.70;;;19.70;99.90;;;;;;5106118;28;20526;-55
2022/08/07 11:06:30;;;;;;;7.47;6.55;;;19.70;99.90;;;;;;5112692;28;20044;-51
2022/08/07 11:09:11;;;;;;;10.52;6.35;;;19.60;99.90;;;;;;5110353;28;20044;-53
2022/08/07 11:12:05;;;;;;;7.32;5.90;;;19.60;99.90;;;;;;5112395;28;20047;-50
2022/08/07 11:14:40;;;;;;;9.90;6.80;;;19.60;99.90;;;;;;5112621;28;20085;-51
2022/08/07 11:17:31;;;;;;;7.88;6.28;;;19.60;99.90;;;;;;5112724;28;20408;-51
2022/08/07 11:20:22;;;;;;;6.68;5.82;;;19.70;99.90;;;;;;5103463;28;20528;-50
2022/08/07 11:23:00;;;;;;;7.38;6.00;;;19.70;99.90;;;;;;5112789;28;20036;-52
2022/08/07 11:25:41;;;;;;;8.90;6.45;;;19.70;99.90;;;;;;5112586;28;20078;-55
2022/08/07 11:28:25;;;;;;;9.60;6.05;;;19.70;99.90;;;;;;5110467;28;20044;-54
2022/08/07 11:31:14;;;;;;;7.32;6.63;;;19.70;99.90;;;;;;5093263;28;20036;-52
2022/08/07 11:33:48;;;;;;;7.43;6.35;;;19.60;99.90;;;;;;5110017;28;20051;-50
2022/08/07 11:36:57;;;;;;;7.80;6.10;;;19.50;99.90;;;;;;5099064;28;20046;-53
2022/08/07 11:39:42;;;;;;;7.28;6.07;;;19.40;99.90;;;;;;5109964;28;20093;-54
2022/08/07 11:42:48;;;;;;;8.18;6.07;;;19.30;99.90;;;;;;5110127;28;20040;-53
2022/08/07 11:45:58;;;;;;;7.22;6.03;;;19.30;99.90;;;;;;5099903;28;20064;-53
2022/08/07 11:48:58;;;;;;;8.50;6.25;;;19.20;99.90;;;;;;5042955;28;20075;-55
2022/08/07 11:52:01;;;;;;;6.13;5.13;;;19.10;99.90;;;;;;5094251;28;20040;-49
2022/08/07 11:55:00;;;;;;;6.47;5.40;;;19.10;99.90;;;;;;5095769;28;20122;-51
2022/08/07 11:57:40;;;;;;;6.65;5.22;;;19.10;99.90;;;;;;5094619;28;20043;-52
2022/08/07 12:00:51;;;;;;;7.78;5.32;;;19.10;99.90;;;;;;5094617;28;20039;-53
2022/08/07 12:03:44;;;;;;;5.68;4.60;;;19.20;99.90;;;;;;5106243;28;20036;-51
2022/08/07 12:06:35;;;;;;;7.68;5.13;;;19.30;99.90;;;;;;5105429;28;20131;-53
2022/08/07 12:09:41;;;;;;;5.90;4.50;;;19.40;99.90;;;;;;5107686;28;20122;-54
2022/08/07 12:12:16;;;;;;;6.72;4.78;;;19.40;99.90;;;;;;5103671;28;20039;-55
2022/08/07 12:14:50;;;;;;;6.45;4.38;;;19.40;99.90;;;;;;5109033;28;20047;-52
2022/08/07 12:17:46;;;;;;;6.13;4.47;;;19.50;99.90;;;;;;5107685;28;20122;-53
2022/08/07 12:21:16;;;;;;;4.43;4.03;;;19.50;99.90;;;;;;5102108;28;20093;-52
2022/08/07 12:24:26;;;;;;;4.57;4.10;;;19.60;99.90;;;;;;5082624;28;20059;-53
2022/08/07 12:27:14;;;;;;;4.78;4.15;;;19.60;99.90;;;;;;5106624;28;20051;-55
2022/08/07 12:29:56;;;;;;;4.95;3.83;;;19.60;99.90;;;;;;5105147;28;20036;-51
2022/08/07 12:32:48;;;;;;;4.50;4.05;;;19.60;99.90;;;;;;5111415;28;20034;-54
2022/08/07 12:35:18;;;;;;;4.60;4.20;;;19.70;99.90;;;;;;5093876;28;20428;-50
2022/08/07 12:37:50;;;;;;;5.35;4.30;;;19.70;99.90;;;;;;5112812;28;20043;-55
2022/08/07 12:40:39;;;;;;;4.47;3.95;;;19.70;99.90;;;;;;5107358;28;20044;-54
2022/08/07 12:43:20;;;;;;;4.47;3.53;;;19.70;99.90;;;;;;5109741;28;20101;-49
2022/08/07 12:46:14;;;;;;;6.20;3.95;;;19.70;99.90;;;;;;5111368;28;20039;-52
2022/08/07 12:49:04;;;;;;;4.60;4.07;;;19.80;99.90;;;;;;5100710;28;20048;-51
2022/08/07 12:52:10;;;;;;;3.90;3.35;;;19.90;99.90;;;;;;5098959;28;20036;-51
2022/08/07 12:54:40;;;;;;;4.30;3.78;;;20.00;99.90;;;;;;5097969;28;20575;-55
2022/08/07 12:57:08;;;;;;;5.47;3.70;;;20.10;99.90;;;;;;5098547;28;20043;-52
2022/08/07 12:59:37;;;;;;;7.80;4.10;;;20.20;99.90;;;;;;5100505;28;20070;-52
2022/08/07 13:02:56;;;;;;;5.70;3.95;;;20.20;99.90;;;;;;5098040;28;20055;-54
2022/08/07 13:05:56;;;;;;;7.68;3.90;;;20.10;99.90;;;;;;5108490;28;20038;-53
2022/08/07 13:09:13;;;;;;;7.63;3.90;;;20.20;99.90;;;;;;5097363;28;20096;-50
2022/08/07 13:12:08;;;;;;;4.15;3.75;;;20.30;99.90;;;;;;5105279;28;20071;-51
2022/08/07 13:15:02;;;;;;;4.40;3.95;;;20.30;99.90;;;;;;5113690;28;20051;-53
2022/08/07 13:17:50;;;;;;;4.93;3.92;;;20.30;99.90;;;;;;5092509;28;20912;-50
2022/08/07 13:20:54;;;;;;;4.25;3.85;;;20.30;99.90;;;;;;5120905;27;20035;-55
2022/08/07 13:23:43;;;;;;;5.80;4.10;;;20.40;99.90;;;;;;5114347;28;20043;-55
2022/08/07 13:26:44;;;;;;;5.13;4.30;;;20.30;99.90;;;;;;5110993;28;20112;-54
2022/08/07 13:29:18;;;;;;;4.70;4.30;;;20.30;99.90;;;;;;5111941;28;20543;-55
2022/08/07 13:31:52;;;;;;;4.88;4.20;;;20.30;99.90;;;;;;5113169;28;20053;-55
2022/08/07 13:34:39;;;;;;;5.22;4.20;;;20.40;99.90;;;;;;5108833;28;20035;-52
2022/08/07 13:37:48;;;;;;;5.70;4.82;;;20.60;99.90;;;;;;5115489;22;20055;-49
2022/08/07 13:40:56;;;;;;;5.03;4.22;;;20.70;99.90;;;;;;5106663;28;20035;-48
2022/08/07 13:43:27;;;;;;;7.05;3.40;;;20.70;99.90;;;;;;5093578;28;20048;-52
2022/08/07 13:46:01;;;;;;;3.95;3.65;;;20.80;99.90;;;;;;5101604;28;20038;-57
2022/08/07 13:48:51;;;;;;;;;;;20.90;99.90;;;;;;5086643;28;20435;-57
2022/08/07 13:51:29;;;;;;;6.10;3.95;;;20.90;99.90;;;;;;5092587;28;19949;-56
2022/08/07 13:54:18;;;;;;;4.47;4.07;;;21.00;99.90;;;;;;5087288;28;20388;-51
2022/08/07 13:56:54;;;;;;;4.13;3.75;;;21.10;99.90;;;;;;5092144;28;20531;-51
2022/08/07 13:59:30;;;;;;;6.78;3.90;;;21.20;99.90;;;;;;5091764;28;20051;-51
2022/08/07 14:02:28;;;;;;;4.28;3.88;;;21.10;99.90;;;;;;5093558;28;20442;-51
2022/08/07 14:05:12;;;;;;;4.70;3.53;;;21.10;99.90;;;;;;5087620;28;20048;-51
2022/08/07 14:07:44;;;;;;;4.28;3.88;;;21.00;99.90;;;;;;5092598;28;20468;-50
2022/08/07 14:10:35;;;;;;;4.18;3.80;;;21.00;99.90;;;;;;5091819;28;20039;-50
2022/08/07 14:13:17;;;;;;;5.80;3.75;;;20.90;99.90;;;;;;5088176;28;20090;-52